Thursday, June 29, 2017, 4:54 AM EDT
Back to Local

KLBE, Latrobe / Westmorland

Location: Latrobe, PA, United States Lat: 40.283
Local Time: 4:54 AM EDT ( 8:54 GMT) Lon: -79.4
Time Zone: US/Eastern Elev: 1184 ft

Show me the last for .
Show Decoded

2017-06-29 04:35 METAR KLBE 290835Z AUTO 00000KT 10SM CLR 12/12 A3010 RMK AO2 =
2017-06-29 04:15 METAR KLBE 290815Z AUTO 00000KT 10SM CLR 13/13 A3010 RMK AO2 =
2017-06-29 03:55 METAR KLBE 290755Z AUTO 00000KT 10SM CLR 13/12 A3009 RMK AO2 =
2017-06-29 03:35 METAR KLBE 290735Z AUTO 00000KT 10SM CLR 13/12 A3009 RMK AO2 =
2017-06-29 03:15 METAR KLBE 290715Z AUTO 00000KT 10SM CLR 13/12 A3009 RMK AO2 =
2017-06-29 02:55 METAR KLBE 290655Z AUTO 20003KT 10SM CLR 14/13 A3010 RMK AO2 =
2017-06-29 02:35 METAR KLBE 290635Z AUTO 00000KT 10SM CLR 13/13 A3010 RMK AO2 =
2017-06-29 02:15 METAR KLBE 290615Z AUTO 00000KT 10SM CLR 13/13 A3010 RMK AO2 =
2017-06-29 01:55 METAR KLBE 290555Z AUTO 00000KT 10SM CLR 13/13 A3011 RMK AO2 =
2017-06-29 01:35 METAR KLBE 290535Z AUTO 00000KT 10SM CLR 13/13 A3011 RMK AO2 =
2017-06-29 01:15 METAR KLBE 290515Z AUTO 00000KT 10SM CLR 12/12 A3012 RMK AO2 =
2017-06-29 00:55 METAR KLBE 290455Z AUTO 00000KT 10SM CLR 13/13 A3011 RMK AO2 =
2017-06-29 00:35 METAR KLBE 290435Z AUTO 00000KT 10SM CLR 12/12 A3011 RMK AO2 =
2017-06-29 00:15 METAR KLBE 290415Z AUTO 00000KT 10SM CLR 13/13 A3010 RMK AO2 =
2017-06-28 23:55 METAR KLBE 290355Z AUTO 00000KT 10SM CLR 13/13 A3011 RMK AO2 =
2017-06-28 23:35 METAR KLBE 290335Z AUTO 00000KT 10SM CLR 14/13 A3012 RMK AO2 =
2017-06-28 23:15 METAR KLBE 290315Z AUTO 00000KT 10SM CLR 14/12 A3011 RMK AO2 =
2017-06-28 22:55 METAR KLBE 290255Z AUTO 00000KT 10SM CLR 15/13 A3011 RMK AO2 =
2017-06-28 22:35 METAR KLBE 290235Z AUTO 00000KT 10SM CLR 15/13 A3012 RMK AO2 =
2017-06-28 22:15 METAR KLBE 290215Z AUTO 00000KT 10SM CLR 16/12 A3012 RMK AO2 =
2017-06-28 21:47 METAR KLBE 290147Z 00000KT 10SM SKC 16/13 A3012 =
2017-06-28 20:45 METAR KLBE 290045Z 21005KT 10SM SCT200 20/13 A3012 =
2017-06-28 19:55 METAR KLBE 282355Z 22005KT 10SM SCT150 21/11 A3012 =
2017-06-28 18:50 METAR KLBE 282250Z 22006KT 10SM BKN150 22/10 A3013 =
2017-06-28 17:50 METAR KLBE 282150Z 24010KT 10SM BKN150 23/11 A3014 =
2017-06-28 16:58 METAR KLBE 282058Z 26011KT 10SM BKN250 23/10 A3016 =
2017-06-28 15:50 METAR KLBE 281950Z 27011KT 10SM BKN250 23/10 A3017 =
2017-06-28 14:45 METAR KLBE 281845Z 23008KT 15SM BKN250 22/08 A3018 =
2017-06-28 13:50 METAR KLBE 281750Z 22010KT 20SM FEW050 BKN200 22/09 A3020 =
2017-06-28 12:50 METAR KLBE 281650Z 23006KT 20SM SCT050 22/08 A3022 =
2017-06-28 11:50 METAR KLBE 281550Z 22006KT 20SM SCT060 20/09 A3021 =
2017-06-28 10:50 METAR KLBE 281450Z 24010KT 10SM SKC 20/10 A3022 =
2017-06-28 09:50 METAR KLBE 281350Z 24012KT 10SM SKC 18/11 A3023 =
2017-06-28 08:50 METAR KLBE 281250Z 24010KT 10SM SKC 16/12 A3021 =
2017-06-28 07:50 METAR KLBE 281150Z 00000KT 10SM SKC 12/12 A3019 =
2017-06-28 06:50 METAR KLBE 281050Z 00000KT 10SM SKC 10/10 A3019 =
2017-06-28 05:55 METAR KLBE 280955Z AUTO 00000KT 10SM CLR 08/08 A3017 RMK AO2 =
2017-06-28 05:35 METAR KLBE 280935Z AUTO 00000KT 10SM CLR 08/08 A3017 RMK AO2 =
2017-06-28 05:15 METAR KLBE 280915Z AUTO 00000KT 10SM CLR 09/09 A3016 RMK AO2 =
2017-06-28 04:55 METAR KLBE 280855Z AUTO 00000KT 10SM CLR 09/09 A3016 RMK AO2 =

Support USWX by starting your Amazon purchase here.